createdAt,value
2022-07-26T00:00:12.417Z,19.93
2022-07-26T00:01:12.494Z,19.92
2022-07-26T00:02:18.033Z,19.92
2022-07-26T00:03:13.381Z,19.96
2022-07-26T00:04:12.368Z,19.92
2022-07-26T00:05:12.371Z,19.93
2022-07-26T00:06:12.350Z,19.81
2022-07-26T00:07:12.334Z,19.84
2022-07-26T00:08:12.325Z,19.82
2022-07-26T00:09:12.336Z,19.86
2022-07-26T00:10:12.314Z,19.97
2022-07-26T00:11:12.300Z,19.96
2022-07-26T00:12:12.286Z,19.94
2022-07-26T00:13:12.277Z,19.94
2022-07-26T00:14:12.272Z,19.89
2022-07-26T00:15:12.267Z,19.96
2022-07-26T00:16:12.306Z,19.92
2022-07-26T00:17:12.238Z,19.93
2022-07-26T00:18:12.382Z,19.93
2022-07-26T00:19:12.218Z,19.94
2022-07-26T00:20:12.201Z,19.93
2022-07-26T00:21:12.244Z,19.93
2022-07-26T00:22:12.185Z,19.97
2022-07-26T00:23:12.171Z,19.86
2022-07-26T00:24:12.168Z,19.96
2022-07-26T00:25:12.153Z,19.84
2022-07-26T00:26:12.142Z,19.82
2022-07-26T00:27:12.159Z,19.78
2022-07-26T00:28:12.116Z,19.86
2022-07-26T00:29:12.301Z,19.81
2022-07-26T00:30:12.105Z,19.82
2022-07-26T00:31:12.188Z,19.93
2022-07-26T00:32:12.081Z,19.93
2022-07-26T00:33:12.078Z,19.90
2022-07-26T00:34:12.058Z,19.94
2022-07-26T00:35:12.052Z,19.96
2022-07-26T00:36:12.037Z,19.93
2022-07-26T00:37:14.969Z,19.92
2022-07-26T00:38:13.038Z,19.92
2022-07-26T00:39:12.151Z,19.96
2022-07-26T00:40:12.002Z,20.04
2022-07-26T00:41:11.987Z,20.02
2022-07-26T00:42:11.975Z,19.93
2022-07-26T00:43:11.969Z,19.90
2022-07-26T00:44:21.012Z,19.89
2022-07-26T00:45:11.986Z,19.92
2022-07-26T00:46:19.650Z,19.93
2022-07-26T00:47:11.989Z,19.90
2022-07-26T00:48:11.964Z,19.90
2022-07-26T00:49:12.619Z,19.94
2022-07-26T00:50:11.944Z,19.82
2022-07-26T00:51:11.892Z,19.82
2022-07-26T00:52:11.867Z,19.82
2022-07-26T00:53:11.868Z,19.81
2022-07-26T00:54:11.858Z,19.84
2022-07-26T00:55:11.832Z,19.86
2022-07-26T00:56:11.860Z,19.84
2022-07-26T00:57:11.816Z,19.79
2022-07-26T00:58:11.807Z,19.77
2022-07-26T00:59:11.957Z,19.84
2022-07-26T01:00:11.786Z,19.79
2022-07-26T01:01:11.894Z,19.77
2022-07-26T01:02:11.785Z,19.75
2022-07-26T01:03:11.754Z,19.75
2022-07-26T01:04:11.951Z,19.71
2022-07-26T01:05:11.730Z,19.72
2022-07-26T01:06:11.722Z,19.72
2022-07-26T01:07:14.656Z,19.68
2022-07-26T01:08:11.694Z,19.64
2022-07-26T01:09:11.700Z,19.63
2022-07-26T01:10:11.681Z,19.67
2022-07-26T01:11:11.663Z,19.68
2022-07-26T01:12:11.664Z,19.62
2022-07-26T01:13:11.638Z,19.68
2022-07-26T01:14:11.793Z,19.64
2022-07-26T01:15:11.632Z,19.64
2022-07-26T01:16:11.690Z,19.59
2022-07-26T01:17:11.612Z,19.63
2022-07-26T01:18:11.611Z,19.56
2022-07-26T01:19:11.637Z,19.67
2022-07-26T01:20:11.563Z,19.64
2022-07-26T01:21:13.650Z,19.64
2022-07-26T01:22:14.621Z,19.68
2022-07-26T01:23:11.608Z,19.71
2022-07-26T01:24:20.692Z,19.72
2022-07-26T01:26:22.200Z,19.75
2022-07-26T01:27:22.104Z,19.78
2022-07-26T01:28:22.016Z,19.74
2022-07-26T01:29:22.684Z,19.79
2022-07-26T01:30:21.939Z,19.77
2022-07-26T01:31:22.139Z,19.71
2022-07-26T01:32:21.962Z,19.70
2022-07-26T01:33:21.916Z,19.67
2022-07-26T01:34:21.913Z,19.72
2022-07-26T01:35:21.879Z,19.77
2022-07-26T01:36:21.907Z,19.74
2022-07-26T01:37:21.879Z,19.68
2022-07-26T01:38:21.849Z,19.62
2022-07-26T01:39:21.926Z,19.68
2022-07-26T01:40:21.964Z,19.63
2022-07-26T01:41:37.369Z,19.60
2022-07-26T01:42:22.975Z,19.60
2022-07-26T01:43:21.803Z,19.64
2022-07-26T01:44:21.777Z,19.56
2022-07-26T01:45:21.767Z,19.57
2022-07-26T01:46:21.824Z,19.52
2022-07-26T01:47:21.955Z,19.57
2022-07-26T01:48:21.741Z,19.54
2022-07-26T01:49:21.804Z,19.49
2022-07-26T01:50:21.726Z,19.52
2022-07-26T01:51:21.731Z,19.54
2022-07-26T01:52:21.714Z,19.53
2022-07-26T01:53:21.677Z,19.42
2022-07-26T01:54:22.513Z,19.42
2022-07-26T01:55:21.669Z,19.35
2022-07-26T01:56:21.647Z,19.49
2022-07-26T01:57:21.651Z,19.44
2022-07-26T01:58:21.639Z,19.47
2022-07-26T01:59:21.620Z,19.41
2022-07-26T02:00:21.635Z,19.45
2022-07-26T02:01:39.178Z,19.41
2022-07-26T02:02:22.750Z,19.35
2022-07-26T02:03:21.672Z,19.39
2022-07-26T02:04:21.661Z,19.37
2022-07-26T02:05:21.545Z,19.44
2022-07-26T02:06:21.533Z,19.34
2022-07-26T02:07:21.556Z,19.31
2022-07-26T02:08:21.772Z,19.30
2022-07-26T02:09:21.508Z,19.31
2022-07-26T02:10:21.500Z,19.23
2022-07-26T02:11:21.503Z,19.31
2022-07-26T02:12:21.487Z,19.31
2022-07-26T02:13:21.475Z,19.16
2022-07-26T02:14:25.580Z,19.19
2022-07-26T02:15:22.433Z,19.16
2022-07-26T02:16:21.541Z,19.15
2022-07-26T02:17:21.417Z,19.20
2022-07-26T02:18:21.413Z,19.22
2022-07-26T02:19:21.401Z,19.23
2022-07-26T02:20:21.398Z,19.09
2022-07-26T02:21:21.382Z,19.16
2022-07-26T02:22:21.370Z,19.12
2022-07-26T02:23:21.370Z,19.12
2022-07-26T02:24:21.358Z,19.08
2022-07-26T02:25:21.338Z,19.08
2022-07-26T02:26:21.326Z,19.05
2022-07-26T02:27:21.309Z,18.97
2022-07-26T02:28:21.303Z,18.96
2022-07-26T02:29:21.300Z,19.04
2022-07-26T02:30:21.282Z,18.97
2022-07-26T02:31:21.375Z,18.91
2022-07-26T02:32:21.263Z,18.89
2022-07-26T02:33:21.258Z,18.93
2022-07-26T02:34:21.257Z,19.00
2022-07-26T02:35:21.228Z,18.94
2022-07-26T02:36:21.221Z,18.86
2022-07-26T02:37:21.226Z,18.89
2022-07-26T02:38:21.200Z,18.88
2022-07-26T02:39:21.198Z,18.85
2022-07-26T02:40:21.179Z,18.78
2022-07-26T02:41:21.162Z,18.79
2022-07-26T02:42:21.158Z,18.78
2022-07-26T02:43:21.149Z,18.78
2022-07-26T02:44:21.137Z,18.78
2022-07-26T02:45:21.137Z,18.70
2022-07-26T02:46:21.166Z,18.66
2022-07-26T02:47:21.192Z,18.60
2022-07-26T02:48:21.098Z,18.61
2022-07-26T02:49:21.173Z,18.60
2022-07-26T02:50:21.074Z,18.70
2022-07-26T02:51:21.078Z,18.63
2022-07-26T02:52:21.061Z,18.60
2022-07-26T02:53:21.040Z,18.64
2022-07-26T02:54:21.023Z,18.57
2022-07-26T02:55:28.650Z,18.56
2022-07-26T02:57:31.412Z,18.56
2022-07-26T02:58:32.345Z,18.60
2022-07-26T02:59:31.376Z,18.51
2022-07-26T03:00:31.314Z,18.56
2022-07-26T03:01:31.382Z,18.51
2022-07-26T03:02:31.397Z,18.57
2022-07-26T03:03:31.356Z,18.49
2022-07-26T03:04:32.325Z,18.52
2022-07-26T03:05:31.265Z,18.52
2022-07-26T03:06:31.340Z,18.54
2022-07-26T03:07:31.234Z,18.46
2022-07-26T03:08:31.209Z,18.49
2022-07-26T03:09:31.218Z,18.38
2022-07-26T03:10:31.212Z,18.43
2022-07-26T03:11:31.174Z,18.43
2022-07-26T03:12:31.183Z,18.38
2022-07-26T03:13:31.162Z,18.46
2022-07-26T03:14:31.141Z,18.45
2022-07-26T03:15:31.237Z,18.43
2022-07-26T03:16:31.241Z,18.38
2022-07-26T03:17:31.131Z,18.31
2022-07-26T03:18:31.106Z,18.27
2022-07-26T03:19:31.101Z,18.26
2022-07-26T03:20:31.086Z,18.24
2022-07-26T03:21:31.071Z,18.20
2022-07-26T03:22:31.079Z,18.20
2022-07-26T03:23:31.062Z,18.23
2022-07-26T03:24:31.037Z,18.24
2022-07-26T03:25:31.033Z,18.27
2022-07-26T03:26:31.020Z,18.26
2022-07-26T03:27:31.012Z,18.27
2022-07-26T03:28:31.013Z,18.23
2022-07-26T03:29:38.638Z,18.30
2022-07-26T03:30:31.051Z,18.20
2022-07-26T03:31:31.135Z,18.24
2022-07-26T03:32:31.011Z,18.30
2022-07-26T03:33:31.065Z,18.23
2022-07-26T03:34:30.941Z,18.23
2022-07-26T03:35:30.919Z,18.27
2022-07-26T03:36:31.915Z,18.17
2022-07-26T03:37:45.663Z,18.30
2022-07-26T03:38:31.896Z,18.18
2022-07-26T03:39:30.894Z,18.28
2022-07-26T03:40:30.874Z,18.20
2022-07-26T03:41:30.861Z,18.20
2022-07-26T03:42:30.854Z,18.23
2022-07-26T03:43:30.872Z,18.23
2022-07-26T03:44:31.833Z,18.24
2022-07-26T03:45:30.813Z,18.28
2022-07-26T03:46:30.853Z,18.28
2022-07-26T03:47:30.796Z,18.28
2022-07-26T03:48:30.870Z,18.31
2022-07-26T03:49:30.797Z,18.34
2022-07-26T03:50:30.772Z,18.34
2022-07-26T03:51:30.750Z,18.46
2022-07-26T03:52:30.742Z,18.42
2022-07-26T03:53:30.733Z,18.42
2022-07-26T03:54:30.719Z,18.46
2022-07-26T03:55:30.717Z,18.42
2022-07-26T03:56:30.714Z,18.45
2022-07-26T03:57:30.686Z,18.46
2022-07-26T03:58:30.686Z,18.42
2022-07-26T03:59:30.671Z,18.42
2022-07-26T04:00:30.669Z,18.45
2022-07-26T04:01:30.763Z,18.48
2022-07-26T04:02:30.714Z,18.45
2022-07-26T04:03:30.624Z,18.43
2022-07-26T04:04:30.616Z,18.61
2022-07-26T04:05:30.620Z,18.46
2022-07-26T04:06:30.604Z,18.48
2022-07-26T04:07:30.587Z,18.46
2022-07-26T04:08:30.587Z,18.51
2022-07-26T04:09:30.565Z,18.54
2022-07-26T04:10:30.567Z,18.67
2022-07-26T04:11:30.542Z,18.61
2022-07-26T04:12:30.526Z,18.66
2022-07-26T04:13:30.537Z,18.63
2022-07-26T04:14:30.519Z,18.63
2022-07-26T04:15:30.505Z,18.68
2022-07-26T04:16:30.541Z,18.66
2022-07-26T04:17:30.496Z,18.67
2022-07-26T04:18:30.470Z,18.75
2022-07-26T04:19:30.460Z,18.78
2022-07-26T04:20:30.457Z,18.78
2022-07-26T04:21:30.445Z,18.76
2022-07-26T04:22:30.427Z,18.76
2022-07-26T04:23:30.431Z,18.74
2022-07-26T04:24:30.413Z,18.79
2022-07-26T04:25:40.785Z,18.81
2022-07-26T04:26:31.402Z,18.82
2022-07-26T04:27:30.383Z,18.85
2022-07-26T04:28:30.378Z,18.78
2022-07-26T04:29:30.361Z,18.78
2022-07-26T04:30:30.396Z,18.85
2022-07-26T04:31:36.407Z,18.96
2022-07-26T04:32:31.344Z,19.07
2022-07-26T04:33:30.322Z,19.05
2022-07-26T04:34:30.300Z,19.09
2022-07-26T04:35:30.289Z,19.08
2022-07-26T04:36:30.283Z,19.16
2022-07-26T04:37:30.275Z,19.20
2022-07-26T04:38:30.299Z,19.16
2022-07-26T04:39:30.249Z,19.22
2022-07-26T04:40:30.241Z,19.35
2022-07-26T04:41:30.225Z,19.42
2022-07-26T04:42:30.219Z,19.38
2022-07-26T04:43:30.211Z,19.39
2022-07-26T04:44:30.220Z,19.42
2022-07-26T04:45:30.187Z,19.34
2022-07-26T04:46:30.230Z,19.41
2022-07-26T04:47:30.169Z,19.31
2022-07-26T04:48:30.231Z,19.42
2022-07-26T04:49:30.158Z,19.38
2022-07-26T04:50:30.145Z,19.49
2022-07-26T04:51:30.121Z,19.53
2022-07-26T04:52:30.109Z,19.53
2022-07-26T04:53:30.101Z,19.60
2022-07-26T04:54:30.093Z,19.60
2022-07-26T04:55:30.093Z,19.70
2022-07-26T04:56:30.079Z,19.64
2022-07-26T04:57:30.055Z,19.78
2022-07-26T04:58:30.052Z,19.77
2022-07-26T04:59:32.736Z,19.82
2022-07-26T05:00:30.043Z,19.96
2022-07-26T05:01:30.059Z,19.92
2022-07-26T05:02:30.087Z,19.89
2022-07-26T05:03:29.995Z,19.89
2022-07-26T05:04:29.986Z,19.87
2022-07-26T05:05:29.982Z,20.04
2022-07-26T05:06:29.975Z,19.90
2022-07-26T05:07:29.953Z,19.93
2022-07-26T05:08:29.961Z,20.04
2022-07-26T05:09:29.941Z,20.18
2022-07-26T05:10:29.927Z,20.18
2022-07-26T05:11:29.925Z,20.27
2022-07-26T05:12:29.905Z,20.37
2022-07-26T05:13:31.002Z,20.32
2022-07-26T05:14:29.887Z,20.33
2022-07-26T05:15:35.233Z,20.32
2022-07-26T05:16:30.929Z,20.37
2022-07-26T05:17:29.856Z,20.33
2022-07-26T05:18:31.712Z,20.29
2022-07-26T05:19:30.824Z,20.50
2022-07-26T05:20:29.840Z,20.56
2022-07-26T05:21:29.803Z,20.56
2022-07-26T05:22:29.804Z,20.74
2022-07-26T05:23:29.789Z,20.88
2022-07-26T05:24:29.783Z,20.88
2022-07-26T05:25:29.769Z,20.89
2022-07-26T05:26:29.765Z,20.89
2022-07-26T05:27:29.749Z,20.85
2022-07-26T05:28:29.738Z,21.00
2022-07-26T05:29:29.748Z,21.00
2022-07-26T05:30:29.840Z,21.16
2022-07-26T05:31:29.737Z,21.14
2022-07-26T05:32:29.701Z,21.22
2022-07-26T05:33:29.689Z,21.20
2022-07-26T05:34:29.695Z,21.25
2022-07-26T05:35:29.657Z,21.10
2022-07-26T05:36:29.648Z,21.23
2022-07-26T05:37:29.641Z,21.37
2022-07-26T05:38:29.638Z,21.58
2022-07-26T05:39:29.622Z,21.71
2022-07-26T05:40:29.622Z,21.81
2022-07-26T05:41:29.604Z,21.94
2022-07-26T05:42:29.591Z,21.94
2022-07-26T05:43:40.942Z,21.88
2022-07-26T05:44:30.575Z,21.84
2022-07-26T05:45:29.622Z,21.94
2022-07-26T05:46:29.591Z,21.84
2022-07-26T05:47:29.534Z,21.78
2022-07-26T05:48:29.570Z,21.88
2022-07-26T05:49:39.727Z,21.84
2022-07-26T05:50:30.544Z,21.74
2022-07-26T05:51:29.489Z,21.62
2022-07-26T05:52:29.486Z,21.81
2022-07-26T05:53:29.474Z,21.93
2022-07-26T05:54:29.463Z,21.94
2022-07-26T05:55:29.456Z,22.01
2022-07-26T05:56:29.465Z,21.98
2022-07-26T05:57:29.436Z,22.11
2022-07-26T05:58:29.424Z,21.91
2022-07-26T05:59:29.412Z,21.67
2022-07-26T06:00:29.398Z,21.67
2022-07-26T06:01:29.409Z,21.69
2022-07-26T06:02:29.451Z,21.63
2022-07-26T06:03:29.366Z,21.66
2022-07-26T06:04:29.391Z,21.59
2022-07-26T06:05:29.349Z,21.51
2022-07-26T06:06:29.349Z,21.50
2022-07-26T06:07:29.337Z,21.40
2022-07-26T06:08:29.345Z,21.30
2022-07-26T06:09:29.309Z,21.20
2022-07-26T06:10:29.293Z,21.13
2022-07-26T06:11:29.291Z,21.11
2022-07-26T06:12:29.272Z,21.20
2022-07-26T06:13:29.266Z,21.32
2022-07-26T06:14:29.264Z,21.50
2022-07-26T06:15:29.248Z,21.62
2022-07-26T06:16:29.237Z,21.80
2022-07-26T06:17:29.263Z,21.63
2022-07-26T06:18:29.245Z,21.48
2022-07-26T06:19:29.199Z,21.44
2022-07-26T06:20:29.192Z,21.30
2022-07-26T06:21:29.180Z,21.44
2022-07-26T06:22:29.162Z,21.29
2022-07-26T06:23:33.540Z,20.95
2022-07-26T06:24:30.152Z,21.01
2022-07-26T06:25:29.132Z,21.11
2022-07-26T06:26:29.133Z,21.37
2022-07-26T06:27:29.114Z,21.53
2022-07-26T06:28:29.117Z,21.56
2022-07-26T06:29:32.409Z,21.51
2022-07-26T06:30:29.083Z,21.45
2022-07-26T06:31:29.144Z,21.37
2022-07-26T06:32:29.078Z,21.38
2022-07-26T06:33:29.055Z,21.47
2022-07-26T06:34:29.041Z,21.63
2022-07-26T06:35:29.046Z,21.65
2022-07-26T06:36:30.935Z,21.60
2022-07-26T06:37:29.016Z,21.55
2022-07-26T06:38:29.022Z,21.40
2022-07-26T06:39:28.988Z,21.63
2022-07-26T06:40:28.982Z,21.62
2022-07-26T06:41:28.991Z,21.48
2022-07-26T06:42:28.966Z,21.38
2022-07-26T06:43:28.946Z,21.30
2022-07-26T06:44:28.956Z,21.40
2022-07-26T06:45:28.933Z,21.41
2022-07-26T06:46:28.983Z,21.41
2022-07-26T06:47:28.918Z,21.47
2022-07-26T06:48:29.038Z,21.18
2022-07-26T06:49:29.054Z,21.29
2022-07-26T06:50:28.933Z,21.25
2022-07-26T06:51:28.865Z,21.28
2022-07-26T06:52:28.875Z,21.38
2022-07-26T06:53:28.852Z,21.60
2022-07-26T06:54:28.835Z,21.66
2022-07-26T06:55:28.822Z,21.78
2022-07-26T06:56:28.822Z,21.98
2022-07-26T06:57:28.811Z,21.85
2022-07-26T06:58:28.795Z,21.88
2022-07-26T06:59:28.780Z,22.07
2022-07-26T07:00:28.769Z,21.98
2022-07-26T07:01:59.644Z,21.84
2022-07-26T07:02:29.783Z,22.09
2022-07-26T07:03:28.749Z,22.06
2022-07-26T07:04:28.807Z,22.27
2022-07-26T07:05:31.210Z,22.30
2022-07-26T07:06:28.718Z,22.31
2022-07-26T07:07:28.708Z,22.25
2022-07-26T07:08:28.724Z,22.34
2022-07-26T07:09:28.678Z,22.46
2022-07-26T07:10:28.673Z,22.37
2022-07-26T07:11:28.658Z,22.28
2022-07-26T07:12:28.648Z,22.18
2022-07-26T07:13:28.656Z,22.06
2022-07-26T07:14:28.643Z,22.12
2022-07-26T07:15:28.646Z,22.16
2022-07-26T07:16:28.630Z,22.27
2022-07-26T07:17:28.596Z,22.44
2022-07-26T07:18:28.589Z,22.58
2022-07-26T07:19:28.585Z,22.58
2022-07-26T07:20:37.578Z,22.52
2022-07-26T07:21:28.574Z,22.78
2022-07-26T07:22:28.564Z,22.74
2022-07-26T07:23:28.592Z,22.71
2022-07-26T07:24:28.577Z,22.92
2022-07-26T07:25:30.975Z,23.03
2022-07-26T07:26:28.607Z,22.91
2022-07-26T07:27:28.549Z,22.88
2022-07-26T07:28:28.576Z,22.99
2022-07-26T07:29:28.472Z,22.99
2022-07-26T07:30:28.489Z,23.08
2022-07-26T07:31:30.149Z,23.01
2022-07-26T07:32:28.536Z,22.99
2022-07-26T07:33:36.692Z,22.92
2022-07-26T07:34:29.431Z,22.80
2022-07-26T07:35:32.031Z,22.88
2022-07-26T07:36:36.036Z,22.88
2022-07-26T07:37:52.215Z,23.11
